sensor_id;sensor_type;location;lat;lon;timestamp;P1;durP1;ratioP1;P2;durP2;ratioP2
45620;SDS011;31345;51.522;10.702;2023-05-18T00:00:39;5.87;;;2.60;;
45620;SDS011;31345;51.522;10.702;2023-05-18T00:03:08;5.97;;;2.60;;
45620;SDS011;31345;51.522;10.702;2023-05-18T00:05:36;8.27;;;3.37;;
45620;SDS011;31345;51.522;10.702;2023-05-18T00:08:03;6.13;;;2.93;;
45620;SDS011;31345;51.522;10.702;2023-05-18T00:10:32;5.63;;;3.20;;
45620;SDS011;31345;51.522;10.702;2023-05-18T00:13:00;8.93;;;3.33;;
45620;SDS011;31345;51.522;10.702;2023-05-18T00:15:32;5.63;;;3.00;;
45620;SDS011;31345;51.522;10.702;2023-05-18T00:18:00;4.87;;;2.97;;
45620;SDS011;31345;51.522;10.702;2023-05-18T00:20:30;5.73;;;3.20;;
45620;SDS011;31345;51.522;10.702;2023-05-18T00:22:59;6.82;;;2.95;;
45620;SDS011;31345;51.522;10.702;2023-05-18T00:25:27;6.33;;;2.83;;
45620;SDS011;31345;51.522;10.702;2023-05-18T00:27:55;6.00;;;2.70;;
45620;SDS011;31345;51.522;10.702;2023-05-18T00:30:23;7.17;;;2.90;;
45620;SDS011;31345;51.522;10.702;2023-05-18T00:32:50;7.87;;;3.10;;
45620;SDS011;31345;51.522;10.702;2023-05-18T00:35:18;6.27;;;2.93;;
45620;SDS011;31345;51.522;10.702;2023-05-18T00:37:47;9.23;;;3.00;;
45620;SDS011;31345;51.522;10.702;2023-05-18T00:40:15;4.67;;;3.07;;
45620;SDS011;31345;51.522;10.702;2023-05-18T00:42:43;6.73;;;3.37;;
45620;SDS011;31345;51.522;10.702;2023-05-18T00:45:11;6.00;;;2.90;;
45620;SDS011;31345;51.522;10.702;2023-05-18T00:47:39;7.53;;;3.27;;
45620;SDS011;31345;51.522;10.702;2023-05-18T00:50:07;5.43;;;2.73;;
45620;SDS011;31345;51.522;10.702;2023-05-18T00:52:36;6.87;;;2.93;;
45620;SDS011;31345;51.522;10.702;2023-05-18T00:55:05;8.37;;;2.97;;
45620;SDS011;31345;51.522;10.702;2023-05-18T00:57:35;5.85;;;2.75;;
45620;SDS011;31345;51.522;10.702;2023-05-18T01:00:03;7.20;;;3.30;;
45620;SDS011;31345;51.522;10.702;2023-05-18T01:02:36;7.10;;;3.00;;
45620;SDS011;31345;51.522;10.702;2023-05-18T01:05:08;6.27;;;2.80;;
45620;SDS011;31345;51.522;10.702;2023-05-18T01:07:37;6.47;;;2.90;;
45620;SDS011;31345;51.522;10.702;2023-05-18T01:10:09;7.55;;;3.30;;
45620;SDS011;31345;51.522;10.702;2023-05-18T01:12:40;7.10;;;3.28;;
45620;SDS011;31345;51.522;10.702;2023-05-18T01:15:12;5.70;;;2.77;;
45620;SDS011;31345;51.522;10.702;2023-05-18T01:17:45;3.55;;;2.05;;
45620;SDS011;31345;51.522;10.702;2023-05-18T01:20:30;10.17;;;2.73;;
45620;SDS011;31345;51.522;10.702;2023-05-18T01:23:20;4.70;;;2.30;;
45620;SDS011;31345;51.522;10.702;2023-05-18T01:26:11;7.87;;;2.40;;
45620;SDS011;31345;51.522;10.702;2023-05-18T01:28:42;11.20;;;2.50;;
45620;SDS011;31345;51.522;10.702;2023-05-18T01:31:12;7.50;;;3.38;;
45620;SDS011;31345;51.522;10.702;2023-05-18T01:33:41;8.30;;;3.07;;
45620;SDS011;31345;51.522;10.702;2023-05-18T01:36:09;6.87;;;2.80;;
45620;SDS011;31345;51.522;10.702;2023-05-18T01:38:37;5.20;;;2.77;;
45620;SDS011;31345;51.522;10.702;2023-05-18T01:41:09;8.07;;;3.47;;
45620;SDS011;31345;51.522;10.702;2023-05-18T01:43:44;9.77;;;3.33;;
45620;SDS011;31345;51.522;10.702;2023-05-18T01:46:17;5.43;;;2.90;;
45620;SDS011;31345;51.522;10.702;2023-05-18T01:48:55;9.60;;;3.20;;
45620;SDS011;31345;51.522;10.702;2023-05-18T01:51:44;5.40;;;2.60;;
45620;SDS011;31345;51.522;10.702;2023-05-18T01:54:14;5.40;;;2.40;;
45620;SDS011;31345;51.522;10.702;2023-05-18T01:56:47;7.27;;;3.10;;
45620;SDS011;31345;51.522;10.702;2023-05-18T01:59:17;5.10;;;2.97;;
45620;SDS011;31345;51.522;10.702;2023-05-18T02:01:45;7.40;;;2.70;;
45620;SDS011;31345;51.522;10.702;2023-05-18T02:04:15;4.40;;;2.87;;
45620;SDS011;31345;51.522;10.702;2023-05-18T02:06:42;5.17;;;2.87;;
45620;SDS011;31345;51.522;10.702;2023-05-18T02:09:10;9.23;;;3.10;;
45620;SDS011;31345;51.522;10.702;2023-05-18T02:11:38;7.03;;;3.07;;
45620;SDS011;31345;51.522;10.702;2023-05-18T02:14:08;5.33;;;3.10;;
45620;SDS011;31345;51.522;10.702;2023-05-18T02:16:36;6.53;;;2.80;;
45620;SDS011;31345;51.522;10.702;2023-05-18T02:19:04;8.97;;;3.07;;
45620;SDS011;31345;51.522;10.702;2023-05-18T02:21:32;5.60;;;2.80;;
45620;SDS011;31345;51.522;10.702;2023-05-18T02:24:02;6.20;;;2.75;;
45620;SDS011;31345;51.522;10.702;2023-05-18T02:26:31;3.90;;;2.63;;
45620;SDS011;31345;51.522;10.702;2023-05-18T02:28:59;7.83;;;3.10;;
45620;SDS011;31345;51.522;10.702;2023-05-18T02:31:28;8.27;;;2.90;;
45620;SDS011;31345;51.522;10.702;2023-05-18T02:33:56;4.83;;;2.70;;
45620;SDS011;31345;51.522;10.702;2023-05-18T02:36:24;8.77;;;3.07;;
45620;SDS011;31345;51.522;10.702;2023-05-18T02:38:52;6.70;;;3.10;;
45620;SDS011;31345;51.522;10.702;2023-05-18T02:41:20;6.03;;;2.80;;
45620;SDS011;31345;51.522;10.702;2023-05-18T02:43:48;5.97;;;3.23;;
45620;SDS011;31345;51.522;10.702;2023-05-18T02:46:18;6.33;;;2.50;;
45620;SDS011;31345;51.522;10.702;2023-05-18T02:48:48;5.20;;;2.47;;
45620;SDS011;31345;51.522;10.702;2023-05-18T02:51:15;4.83;;;2.80;;
45620;SDS011;31345;51.522;10.702;2023-05-18T02:53:44;4.90;;;2.70;;
45620;SDS011;31345;51.522;10.702;2023-05-18T02:56:14;5.10;;;2.70;;
45620;SDS011;31345;51.522;10.702;2023-05-18T02:58:51;5.73;;;2.90;;
45620;SDS011;31345;51.522;10.702;2023-05-18T03:01:29;4.60;;;2.40;;
45620;SDS011;31345;51.522;10.702;2023-05-18T03:04:01;6.83;;;2.93;;
45620;SDS011;31345;51.522;10.702;2023-05-18T03:06:31;6.67;;;3.43;;
45620;SDS011;31345;51.522;10.702;2023-05-18T03:09:01;8.47;;;3.20;;
45620;SDS011;31345;51.522;10.702;2023-05-18T03:11:35;5.23;;;2.77;;
45620;SDS011;31345;51.522;10.702;2023-05-18T03:14:03;7.07;;;3.10;;
45620;SDS011;31345;51.522;10.702;2023-05-18T03:16:31;8.03;;;2.60;;
45620;SDS011;31345;51.522;10.702;2023-05-18T03:19:01;6.43;;;3.00;;
45620;SDS011;31345;51.522;10.702;2023-05-18T03:21:36;5.80;;;2.97;;
45620;SDS011;31345;51.522;10.702;2023-05-18T03:24:04;7.57;;;3.30;;
45620;SDS011;31345;51.522;10.702;2023-05-18T03:26:35;7.75;;;3.25;;
45620;SDS011;31345;51.522;10.702;2023-05-18T03:29:05;6.17;;;3.00;;
45620;SDS011;31345;51.522;10.702;2023-05-18T03:31:32;6.93;;;3.10;;
45620;SDS011;31345;51.522;10.702;2023-05-18T03:34:03;5.90;;;3.00;;
45620;SDS011;31345;51.522;10.702;2023-05-18T03:36:31;7.93;;;3.00;;
45620;SDS011;31345;51.522;10.702;2023-05-18T03:39:00;6.33;;;2.97;;
45620;SDS011;31345;51.522;10.702;2023-05-18T03:41:29;5.00;;;2.80;;
45620;SDS011;31345;51.522;10.702;2023-05-18T03:43:57;6.67;;;2.77;;
45620;SDS011;31345;51.522;10.702;2023-05-18T03:46:25;8.37;;;3.00;;
45620;SDS011;31345;51.522;10.702;2023-05-18T03:51:33;5.60;;;3.10;;
45620;SDS011;31345;51.522;10.702;2023-05-18T03:54:02;8.00;;;3.37;;
45620;SDS011;31345;51.522;10.702;2023-05-18T03:56:29;6.10;;;2.93;;
45620;SDS011;31345;51.522;10.702;2023-05-18T03:58:57;7.00;;;2.77;;
45620;SDS011;31345;51.522;10.702;2023-05-18T04:01:25;7.07;;;3.20;;
45620;SDS011;31345;51.522;10.702;2023-05-18T04:03:55;9.00;;;3.33;;
45620;SDS011;31345;51.522;10.702;2023-05-18T04:06:24;7.20;;;3.30;;
45620;SDS011;31345;51.522;10.702;2023-05-18T04:08:54;5.67;;;2.97;;
45620;SDS011;31345;51.522;10.702;2023-05-18T04:11:24;7.43;;;3.00;;
45620;SDS011;31345;51.522;10.702;2023-05-18T04:13:54;5.13;;;2.83;;
45620;SDS011;31345;51.522;10.702;2023-05-18T04:16:23;9.27;;;3.77;;
45620;SDS011;31345;51.522;10.702;2023-05-18T04:18:54;6.80;;;3.10;;
45620;SDS011;31345;51.522;10.702;2023-05-18T04:21:22;7.60;;;3.17;;
45620;SDS011;31345;51.522;10.702;2023-05-18T04:23:50;6.57;;;2.90;;
45620;SDS011;31345;51.522;10.702;2023-05-18T04:26:19;7.60;;;3.80;;
45620;SDS011;31345;51.522;10.702;2023-05-18T04:28:47;15.27;;;3.23;;
45620;SDS011;31345;51.522;10.702;2023-05-18T04:31:15;5.40;;;2.47;;
45620;SDS011;31345;51.522;10.702;2023-05-18T04:33:45;6.18;;;3.10;;
45620;SDS011;31345;51.522;10.702;2023-05-18T04:36:13;5.67;;;2.73;;
45620;SDS011;31345;51.522;10.702;2023-05-18T04:38:45;7.15;;;3.42;;
45620;SDS011;31345;51.522;10.702;2023-05-18T04:41:16;5.15;;;2.97;;
45620;SDS011;31345;51.522;10.702;2023-05-18T04:43:48;7.63;;;3.40;;
45620;SDS011;31345;51.522;10.702;2023-05-18T04:46:17;4.82;;;3.50;;
45620;SDS011;31345;51.522;10.702;2023-05-18T04:48:47;5.97;;;3.47;;
45620;SDS011;31345;51.522;10.702;2023-05-18T04:51:15;6.47;;;3.20;;
45620;SDS011;31345;51.522;10.702;2023-05-18T04:53:47;5.30;;;3.70;;
45620;SDS011;31345;51.522;10.702;2023-05-18T04:56:15;7.37;;;4.00;;
45620;SDS011;31345;51.522;10.702;2023-05-18T04:58:45;5.90;;;3.73;;
45620;SDS011;31345;51.522;10.702;2023-05-18T05:03:45;8.27;;;4.17;;
45620;SDS011;31345;51.522;10.702;2023-05-18T05:06:13;5.97;;;3.27;;
45620;SDS011;31345;51.522;10.702;2023-05-18T05:08:42;8.63;;;3.50;;
45620;SDS011;31345;51.522;10.702;2023-05-18T05:11:10;10.17;;;3.67;;
45620;SDS011;31345;51.522;10.702;2023-05-18T05:13:38;9.27;;;3.97;;
45620;SDS011;31345;51.522;10.702;2023-05-18T05:16:06;4.73;;;3.27;;
45620;SDS011;31345;51.522;10.702;2023-05-18T05:18:35;8.23;;;3.87;;
45620;SDS011;31345;51.522;10.702;2023-05-18T05:21:03;5.97;;;3.70;;
45620;SDS011;31345;51.522;10.702;2023-05-18T05:23:32;8.73;;;4.17;;
45620;SDS011;31345;51.522;10.702;2023-05-18T05:26:00;7.57;;;3.17;;
45620;SDS011;31345;51.522;10.702;2023-05-18T05:28:29;8.97;;;4.03;;
45620;SDS011;31345;51.522;10.702;2023-05-18T05:30:57;7.60;;;3.63;;
45620;SDS011;31345;51.522;10.702;2023-05-18T05:33:25;7.43;;;3.60;;
45620;SDS011;31345;51.522;10.702;2023-05-18T05:35:55;7.83;;;4.37;;
45620;SDS011;31345;51.522;10.702;2023-05-18T05:38:23;9.80;;;4.23;;
45620;SDS011;31345;51.522;10.702;2023-05-18T05:40:53;11.53;;;3.63;;
45620;SDS011;31345;51.522;10.702;2023-05-18T05:43:21;6.47;;;3.57;;
45620;SDS011;31345;51.522;10.702;2023-05-18T05:45:50;9.30;;;4.00;;
45620;SDS011;31345;51.522;10.702;2023-05-18T05:48:18;8.27;;;3.63;;
45620;SDS011;31345;51.522;10.702;2023-05-18T05:50:46;7.43;;;3.60;;
45620;SDS011;31345;51.522;10.702;2023-05-18T05:53:16;8.45;;;4.15;;
45620;SDS011;31345;51.522;10.702;2023-05-18T05:58:16;8.40;;;3.97;;
45620;SDS011;31345;51.522;10.702;2023-05-18T06:00:51;7.53;;;4.03;;
45620;SDS011;31345;51.522;10.702;2023-05-18T06:03:19;9.90;;;3.58;;
45620;SDS011;31345;51.522;10.702;2023-05-18T06:05:49;5.97;;;3.30;;
45620;SDS011;31345;51.522;10.702;2023-05-18T06:08:21;8.85;;;4.13;;
45620;SDS011;31345;51.522;10.702;2023-05-18T06:10:50;7.00;;;3.70;;
45620;SDS011;31345;51.522;10.702;2023-05-18T06:13:18;8.73;;;3.85;;
45620;SDS011;31345;51.522;10.702;2023-05-18T06:15:49;7.13;;;3.60;;
45620;SDS011;31345;51.522;10.702;2023-05-18T06:18:17;5.85;;;3.03;;
45620;SDS011;31345;51.522;10.702;2023-05-18T06:20:45;6.78;;;3.28;;
45620;SDS011;31345;51.522;10.702;2023-05-18T06:23:14;7.65;;;3.50;;
45620;SDS011;31345;51.522;10.702;2023-05-18T06:26:03;11.68;;;4.22;;
45620;SDS011;31345;51.522;10.702;2023-05-18T06:28:50;6.95;;;3.78;;
45620;SDS011;31345;51.522;10.702;2023-05-18T06:31:47;8.90;;;3.67;;
45620;SDS011;31345;51.522;10.702;2023-05-18T06:34:34;11.02;;;3.95;;
45620;SDS011;31345;51.522;10.702;2023-05-18T06:37:03;6.43;;;3.33;;
45620;SDS011;31345;51.522;10.702;2023-05-18T06:39:31;11.15;;;3.53;;
45620;SDS011;31345;51.522;10.702;2023-05-18T06:42:04;7.03;;;3.85;;
45620;SDS011;31345;51.522;10.702;2023-05-18T06:44:33;6.57;;;3.42;;
45620;SDS011;31345;51.522;10.702;2023-05-18T06:47:16;11.05;;;3.20;;
45620;SDS011;31345;51.522;10.702;2023-05-18T06:49:44;8.77;;;3.40;;
45620;SDS011;31345;51.522;10.702;2023-05-18T06:52:12;7.80;;;3.10;;
45620;SDS011;31345;51.522;10.702;2023-05-18T06:54:42;7.40;;;3.25;;
45620;SDS011;31345;51.522;10.702;2023-05-18T06:57:12;7.38;;;3.15;;
45620;SDS011;31345;51.522;10.702;2023-05-18T06:59:42;6.57;;;3.28;;
45620;SDS011;31345;51.522;10.702;2023-05-18T07:02:11;9.02;;;3.33;;
45620;SDS011;31345;51.522;10.702;2023-05-18T07:04:39;9.68;;;3.45;;
45620;SDS011;31345;51.522;10.702;2023-05-18T07:07:10;8.30;;;3.25;;
45620;SDS011;31345;51.522;10.702;2023-05-18T07:09:38;8.43;;;3.50;;
45620;SDS011;31345;51.522;10.702;2023-05-18T07:12:07;7.00;;;3.40;;
45620;SDS011;31345;51.522;10.702;2023-05-18T07:14:36;9.48;;;3.47;;
45620;SDS011;31345;51.522;10.702;2023-05-18T07:17:19;7.57;;;2.97;;
45620;SDS011;31345;51.522;10.702;2023-05-18T07:19:47;7.80;;;3.33;;
45620;SDS011;31345;51.522;10.702;2023-05-18T07:22:16;10.00;;;3.33;;
45620;SDS011;31345;51.522;10.702;2023-05-18T07:24:44;6.00;;;2.78;;
45620;SDS011;31345;51.522;10.702;2023-05-18T07:27:13;9.68;;;3.15;;
45620;SDS011;31345;51.522;10.702;2023-05-18T07:29:52;7.10;;;2.80;;
45620;SDS011;31345;51.522;10.702;2023-05-18T07:32:21;9.70;;;3.30;;
45620;SDS011;31345;51.522;10.702;2023-05-18T07:34:51;6.50;;;2.92;;
45620;SDS011;31345;51.522;10.702;2023-05-18T07:37:19;8.38;;;2.80;;
45620;SDS011;31345;51.522;10.702;2023-05-18T07:39:47;7.63;;;2.85;;
45620;SDS011;31345;51.522;10.702;2023-05-18T07:42:15;11.18;;;3.25;;
45620;SDS011;31345;51.522;10.702;2023-05-18T07:44:42;6.82;;;2.72;;
45620;SDS011;31345;51.522;10.702;2023-05-18T07:47:12;7.18;;;3.28;;
45620;SDS011;31345;51.522;10.702;2023-05-18T07:49:40;10.38;;;3.00;;
45620;SDS011;31345;51.522;10.702;2023-05-18T07:52:09;6.30;;;2.80;;
45620;SDS011;31345;51.522;10.702;2023-05-18T07:54:43;10.48;;;2.95;;
45620;SDS011;31345;51.522;10.702;2023-05-18T07:59:39;10.15;;;3.17;;
45620;SDS011;31345;51.522;10.702;2023-05-18T08:02:13;12.00;;;3.45;;
45620;SDS011;31345;51.522;10.702;2023-05-18T08:04:42;11.02;;;3.38;;
45620;SDS011;31345;51.522;10.702;2023-05-18T08:07:10;9.48;;;3.10;;
45620;SDS011;31345;51.522;10.702;2023-05-18T08:09:38;9.05;;;3.40;;
45620;SDS011;31345;51.522;10.702;2023-05-18T08:12:06;10.85;;;3.15;;
45620;SDS011;31345;51.522;10.702;2023-05-18T08:14:34;7.07;;;2.53;;
45620;SDS011;31345;51.522;10.702;2023-05-18T08:17:02;8.25;;;2.80;;
45620;SDS011;31345;51.522;10.702;2023-05-18T08:19:32;8.43;;;2.53;;
45620;SDS011;31345;51.522;10.702;2023-05-18T08:22:02;4.38;;;2.00;;
45620;SDS011;31345;51.522;10.702;2023-05-18T08:24:30;6.10;;;2.20;;
45620;SDS011;31345;51.522;10.702;2023-05-18T08:26:58;7.78;;;2.45;;
45620;SDS011;31345;51.522;10.702;2023-05-18T08:29:28;8.50;;;2.17;;
45620;SDS011;31345;51.522;10.702;2023-05-18T08:32:05;10.57;;;2.23;;
45620;SDS011;31345;51.522;10.702;2023-05-18T08:34:43;7.07;;;2.30;;
45620;SDS011;31345;51.522;10.702;2023-05-18T08:37:16;6.55;;;1.90;;
45620;SDS011;31345;51.522;10.702;2023-05-18T08:39:44;8.82;;;1.90;;
45620;SDS011;31345;51.522;10.702;2023-05-18T08:42:15;8.82;;;1.95;;
45620;SDS011;31345;51.522;10.702;2023-05-18T08:44:49;7.80;;;2.55;;
45620;SDS011;31345;51.522;10.702;2023-05-18T08:47:27;11.95;;;2.10;;
45620;SDS011;31345;51.522;10.702;2023-05-18T08:49:59;6.88;;;2.17;;
45620;SDS011;31345;51.522;10.702;2023-05-18T08:55:00;10.35;;;2.72;;
45620;SDS011;31345;51.522;10.702;2023-05-18T08:57:54;6.10;;;2.15;;
45620;SDS011;31345;51.522;10.702;2023-05-18T09:00:30;6.45;;;2.15;;
45620;SDS011;31345;51.522;10.702;2023-05-18T09:06:58;11.98;;;2.83;;
45620;SDS011;31345;51.522;10.702;2023-05-18T09:09:35;5.72;;;1.75;;
45620;SDS011;31345;51.522;10.702;2023-05-18T09:12:34;5.20;;;2.13;;
45620;SDS011;31345;51.522;10.702;2023-05-18T09:18:37;7.97;;;2.13;;
45620;SDS011;31345;51.522;10.702;2023-05-18T09:21:33;7.10;;;2.15;;
45620;SDS011;31345;51.522;10.702;2023-05-18T09:24:07;12.63;;;2.65;;
45620;SDS011;31345;51.522;10.702;2023-05-18T09:26:44;8.45;;;2.05;;
45620;SDS011;31345;51.522;10.702;2023-05-18T09:30:03;8.57;;;1.98;;
45620;SDS011;31345;51.522;10.702;2023-05-18T09:32:52;7.78;;;2.03;;
45620;SDS011;31345;51.522;10.702;2023-05-18T09:38:36;7.63;;;1.75;;
45620;SDS011;31345;51.522;10.702;2023-05-18T09:44:04;8.40;;;2.60;;
45620;SDS011;31345;51.522;10.702;2023-05-18T09:46:53;13.90;;;2.85;;
45620;SDS011;31345;51.522;10.702;2023-05-18T09:49:40;9.90;;;2.55;;
45620;SDS011;31345;51.522;10.702;2023-05-18T09:52:28;10.07;;;2.33;;
45620;SDS011;31345;51.522;10.702;2023-05-18T09:55:31;11.15;;;2.38;;
45620;SDS011;31345;51.522;10.702;2023-05-18T10:01:15;9.18;;;1.92;;
45620;SDS011;31345;51.522;10.702;2023-05-18T10:07:09;8.80;;;2.08;;
45620;SDS011;31345;51.522;10.702;2023-05-18T10:09:44;6.95;;;2.22;;
45620;SDS011;31345;51.522;10.702;2023-05-18T10:12:13;4.72;;;1.98;;
45620;SDS011;31345;51.522;10.702;2023-05-18T10:14:52;6.82;;;1.95;;
45620;SDS011;31345;51.522;10.702;2023-05-18T10:17:27;6.63;;;2.03;;
45620;SDS011;31345;51.522;10.702;2023-05-18T10:20:21;6.38;;;1.73;;
45620;SDS011;31345;51.522;10.702;2023-05-18T10:23:55;8.73;;;1.95;;
45620;SDS011;31345;51.522;10.702;2023-05-18T10:26:55;6.88;;;1.75;;
45620;SDS011;31345;51.522;10.702;2023-05-18T10:29:37;8.25;;;2.15;;
45620;SDS011;31345;51.522;10.702;2023-05-18T10:32:49;8.18;;;2.40;;
45620;SDS011;31345;51.522;10.702;2023-05-18T10:35:29;7.38;;;2.75;;
45620;SDS011;31345;51.522;10.702;2023-05-18T10:41:35;6.63;;;2.45;;
45620;SDS011;31345;51.522;10.702;2023-05-18T10:45:13;7.70;;;2.15;;
45620;SDS011;31345;51.522;10.702;2023-05-18T10:48:13;8.40;;;2.17;;
45620;SDS011;31345;51.522;10.702;2023-05-18T10:50:41;6.10;;;2.17;;
45620;SDS011;31345;51.522;10.702;2023-05-18T10:53:16;8.48;;;2.28;;
45620;SDS011;31345;51.522;10.702;2023-05-18T10:55:50;7.28;;;2.17;;
45620;SDS011;31345;51.522;10.702;2023-05-18T10:58:24;8.88;;;2.38;;
45620;SDS011;31345;51.522;10.702;2023-05-18T11:01:00;8.63;;;2.20;;
45620;SDS011;31345;51.522;10.702;2023-05-18T11:03:32;7.15;;;2.17;;
45620;SDS011;31345;51.522;10.702;2023-05-18T11:06:04;8.20;;;2.50;;
45620;SDS011;31345;51.522;10.702;2023-05-18T11:08:33;9.57;;;2.40;;
45620;SDS011;31345;51.522;10.702;2023-05-18T11:11:13;6.75;;;2.45;;
45620;SDS011;31345;51.522;10.702;2023-05-18T11:13:46;8.18;;;1.85;;
45620;SDS011;31345;51.522;10.702;2023-05-18T11:16:15;8.82;;;2.30;;
45620;SDS011;31345;51.522;10.702;2023-05-18T11:18:50;6.45;;;2.22;;
45620;SDS011;31345;51.522;10.702;2023-05-18T11:24:23;7.18;;;1.85;;
45620;SDS011;31345;51.522;10.702;2023-05-18T11:26:51;6.45;;;1.90;;
45620;SDS011;31345;51.522;10.702;2023-05-18T11:29:23;5.88;;;1.90;;
45620;SDS011;31345;51.522;10.702;2023-05-18T11:32:02;7.10;;;2.00;;
45620;SDS011;31345;51.522;10.702;2023-05-18T11:34:42;7.25;;;2.45;;
45620;SDS011;31345;51.522;10.702;2023-05-18T11:37:13;10.80;;;2.35;;
45620;SDS011;31345;51.522;10.702;2023-05-18T11:39:52;4.82;;;1.80;;
45620;SDS011;31345;51.522;10.702;2023-05-18T11:42:30;6.35;;;2.03;;
45620;SDS011;31345;51.522;10.702;2023-05-18T11:45:07;9.60;;;2.40;;
45620;SDS011;31345;51.522;10.702;2023-05-18T11:47:36;7.15;;;2.00;;
45620;SDS011;31345;51.522;10.702;2023-05-18T11:50:11;10.40;;;2.28;;
45620;SDS011;31345;51.522;10.702;2023-05-18T11:52:45;8.25;;;2.38;;
45620;SDS011;31345;51.522;10.702;2023-05-18T11:55:19;5.53;;;2.00;;
45620;SDS011;31345;51.522;10.702;2023-05-18T11:57:47;6.03;;;2.10;;
45620;SDS011;31345;51.522;10.702;2023-05-18T12:00:22;5.75;;;1.88;;
45620;SDS011;31345;51.522;10.702;2023-05-18T12:02:55;7.30;;;2.50;;
45620;SDS011;31345;51.522;10.702;2023-05-18T12:05:30;6.57;;;1.85;;
45620;SDS011;31345;51.522;10.702;2023-05-18T12:08:04;6.53;;;1.90;;
45620;SDS011;31345;51.522;10.702;2023-05-18T12:10:36;6.65;;;2.15;;
45620;SDS011;31345;51.522;10.702;2023-05-18T12:13:09;7.10;;;1.73;;
45620;SDS011;31345;51.522;10.702;2023-05-18T12:15:38;10.88;;;1.90;;
45620;SDS011;31345;51.522;10.702;2023-05-18T12:18:06;9.23;;;2.22;;
45620;SDS011;31345;51.522;10.702;2023-05-18T12:20:40;8.57;;;1.90;;
45620;SDS011;31345;51.522;10.702;2023-05-18T12:23:13;5.50;;;1.80;;
45620;SDS011;31345;51.522;10.702;2023-05-18T12:25:46;4.93;;;1.77;;
45620;SDS011;31345;51.522;10.702;2023-05-18T12:28:13;8.05;;;2.65;;
45620;SDS011;31345;51.522;10.702;2023-05-18T12:30:47;4.95;;;1.75;;
45620;SDS011;31345;51.522;10.702;2023-05-18T12:33:14;6.05;;;1.98;;
45620;SDS011;31345;51.522;10.702;2023-05-18T12:35:43;5.10;;;2.03;;
45620;SDS011;31345;51.522;10.702;2023-05-18T12:38:11;7.55;;;2.30;;
45620;SDS011;31345;51.522;10.702;2023-05-18T12:40:48;5.82;;;2.20;;
45620;SDS011;31345;51.522;10.702;2023-05-18T12:43:17;7.40;;;1.92;;
45620;SDS011;31345;51.522;10.702;2023-05-18T12:45:45;6.00;;;2.20;;
45620;SDS011;31345;51.522;10.702;2023-05-18T12:48:12;8.25;;;2.22;;
45620;SDS011;31345;51.522;10.702;2023-05-18T12:50:47;6.43;;;2.38;;
45620;SDS011;31345;51.522;10.702;2023-05-18T12:53:16;5.73;;;1.60;;
45620;SDS011;31345;51.522;10.702;2023-05-18T12:55:44;4.35;;;1.63;;
45620;SDS011;31345;51.522;10.702;2023-05-18T12:58:13;6.10;;;2.30;;
45620;SDS011;31345;51.522;10.702;2023-05-18T13:00:48;7.25;;;2.17;;
45620;SDS011;31345;51.522;10.702;2023-05-18T13:03:20;4.00;;;1.88;;
45620;SDS011;31345;51.522;10.702;2023-05-18T13:06:02;8.25;;;1.85;;
45620;SDS011;31345;51.522;10.702;2023-05-18T13:08:31;6.15;;;1.73;;
45620;SDS011;31345;51.522;10.702;2023-05-18T13:11:04;4.93;;;2.00;;
45620;SDS011;31345;51.522;10.702;2023-05-18T13:13:32;4.38;;;1.85;;
45620;SDS011;31345;51.522;10.702;2023-05-18T13:16:01;8.10;;;2.20;;
45620;SDS011;31345;51.522;10.702;2023-05-18T13:18:28;5.25;;;1.85;;
45620;SDS011;31345;51.522;10.702;2023-05-18T13:21:02;7.78;;;2.28;;
45620;SDS011;31345;51.522;10.702;2023-05-18T13:23:33;4.95;;;1.98;;
45620;SDS011;31345;51.522;10.702;2023-05-18T13:26:07;3.67;;;1.75;;
45620;SDS011;31345;51.522;10.702;2023-05-18T13:28:35;7.78;;;2.17;;
45620;SDS011;31345;51.522;10.702;2023-05-18T13:31:02;7.68;;;2.50;;
45620;SDS011;31345;51.522;10.702;2023-05-18T13:33:35;7.43;;;1.80;;
45620;SDS011;31345;51.522;10.702;2023-05-18T13:36:04;8.27;;;2.13;;
45620;SDS011;31345;51.522;10.702;2023-05-18T13:38:38;5.25;;;2.00;;
45620;SDS011;31345;51.522;10.702;2023-05-18T13:41:13;7.10;;;2.20;;
45620;SDS011;31345;51.522;10.702;2023-05-18T13:43:42;4.40;;;2.10;;
45620;SDS011;31345;51.522;10.702;2023-05-18T13:46:15;4.22;;;2.00;;
45620;SDS011;31345;51.522;10.702;2023-05-18T13:48:43;5.53;;;2.00;;
45620;SDS011;31345;51.522;10.702;2023-05-18T13:51:17;5.50;;;1.83;;
45620;SDS011;31345;51.522;10.702;2023-05-18T13:53:44;4.57;;;1.92;;
45620;SDS011;31345;51.522;10.702;2023-05-18T13:56:17;10.60;;;2.20;;
45620;SDS011;31345;51.522;10.702;2023-05-18T13:58:49;6.43;;;1.90;;
45620;SDS011;31345;51.522;10.702;2023-05-18T14:01:22;6.78;;;1.92;;
45620;SDS011;31345;51.522;10.702;2023-05-18T14:03:55;5.93;;;1.80;;
45620;SDS011;31345;51.522;10.702;2023-05-18T14:06:29;7.15;;;1.77;;
45620;SDS011;31345;51.522;10.702;2023-05-18T14:09:01;5.40;;;1.95;;
45620;SDS011;31345;51.522;10.702;2023-05-18T14:11:34;5.25;;;1.70;;
45620;SDS011;31345;51.522;10.702;2023-05-18T14:14:04;5.85;;;1.83;;
45620;SDS011;31345;51.522;10.702;2023-05-18T14:16:36;5.75;;;1.60;;
45620;SDS011;31345;51.522;10.702;2023-05-18T14:19:09;6.40;;;2.35;;
45620;SDS011;31345;51.522;10.702;2023-05-18T14:21:43;6.38;;;2.20;;
45620;SDS011;31345;51.522;10.702;2023-05-18T14:24:10;5.78;;;1.77;;
45620;SDS011;31345;51.522;10.702;2023-05-18T14:26:45;6.75;;;1.70;;
45620;SDS011;31345;51.522;10.702;2023-05-18T14:29:17;6.95;;;1.92;;
45620;SDS011;31345;51.522;10.702;2023-05-18T14:31:53;6.32;;;1.73;;
45620;SDS011;31345;51.522;10.702;2023-05-18T14:34:25;3.75;;;1.58;;
45620;SDS011;31345;51.522;10.702;2023-05-18T14:36:59;5.45;;;1.80;;
45620;SDS011;31345;51.522;10.702;2023-05-18T14:39:31;7.25;;;1.92;;
45620;SDS011;31345;51.522;10.702;2023-05-18T14:42:04;4.65;;;2.00;;
45620;SDS011;31345;51.522;10.702;2023-05-18T14:44:37;3.55;;;1.50;;
45620;SDS011;31345;51.522;10.702;2023-05-18T14:47:10;7.57;;;1.95;;
45620;SDS011;31345;51.522;10.702;2023-05-18T14:49:44;4.90;;;1.80;;
45620;SDS011;31345;51.522;10.702;2023-05-18T14:52:13;4.63;;;1.60;;
45620;SDS011;31345;51.522;10.702;2023-05-18T14:54:45;5.55;;;1.90;;
45620;SDS011;31345;51.522;10.702;2023-05-18T14:57:18;6.70;;;1.85;;
45620;SDS011;31345;51.522;10.702;2023-05-18T14:59:51;5.28;;;1.80;;
45620;SDS011;31345;51.522;10.702;2023-05-18T15:02:18;7.07;;;2.00;;
45620;SDS011;31345;51.522;10.702;2023-05-18T15:04:46;6.47;;;2.05;;
45620;SDS011;31345;51.522;10.702;2023-05-18T15:07:19;5.30;;;1.70;;
45620;SDS011;31345;51.522;10.702;2023-05-18T15:09:52;5.70;;;2.15;;
45620;SDS011;31345;51.522;10.702;2023-05-18T15:12:20;4.78;;;1.60;;
45620;SDS011;31345;51.522;10.702;2023-05-18T15:14:53;7.13;;;1.83;;
45620;SDS011;31345;51.522;10.702;2023-05-18T15:17:26;4.35;;;1.85;;
45620;SDS011;31345;51.522;10.702;2023-05-18T15:19:58;4.55;;;1.50;;
45620;SDS011;31345;51.522;10.702;2023-05-18T15:22:32;6.00;;;1.45;;
45620;SDS011;31345;51.522;10.702;2023-05-18T15:25:06;7.35;;;2.00;;
45620;SDS011;31345;51.522;10.702;2023-05-18T15:27:39;6.75;;;1.75;;
45620;SDS011;31345;51.522;10.702;2023-05-18T15:30:12;4.82;;;1.95;;
45620;SDS011;31345;51.522;10.702;2023-05-18T15:32:44;5.25;;;1.90;;
45620;SDS011;31345;51.522;10.702;2023-05-18T15:35:12;5.55;;;2.00;;
45620;SDS011;31345;51.522;10.702;2023-05-18T15:37:47;6.38;;;1.83;;
45620;SDS011;31345;51.522;10.702;2023-05-18T15:40:20;9.63;;;1.88;;
45620;SDS011;31345;51.522;10.702;2023-05-18T15:42:47;7.82;;;1.80;;